sensor_id;sensor_type;location;lat;lon;timestamp;pressure;altitude;pressure_sealevel;temperature;humidity
10732;BME280;5417;42.686;23.244;2022-11-20T00:01:45;93521.63;;;18.27;58.17
10732;BME280;5417;42.686;23.244;2022-11-20T00:04:14;93504.38;;;18.24;58.51
10732;BME280;5417;42.686;23.244;2022-11-20T00:06:41;93511.47;;;18.24;58.63
10732;BME280;5417;42.686;23.244;2022-11-20T00:09:13;93533.59;;;18.29;58.67
10732;BME280;5417;42.686;23.244;2022-11-20T00:11:43;93546.78;;;18.29;58.49
10732;BME280;5417;42.686;23.244;2022-11-20T00:14:10;93519.19;;;18.25;59.08
10732;BME280;5417;42.686;23.244;2022-11-20T00:16:37;93517.22;;;18.34;58.67
10732;BME280;5417;42.686;23.244;2022-11-20T00:19:04;93491.06;;;18.33;58.55
10732;BME280;5417;42.686;23.244;2022-11-20T00:21:31;93499.97;;;18.32;58.00
10732;BME280;5417;42.686;23.244;2022-11-20T00:24:00;93523.06;;;18.29;58.26
10732;BME280;5417;42.686;23.244;2022-11-20T00:26:31;93518.41;;;18.32;58.08
10732;BME280;5417;42.686;23.244;2022-11-20T00:28:59;93515.00;;;18.38;58.01
10732;BME280;5417;42.686;23.244;2022-11-20T00:31:27;93524.97;;;18.42;58.25
10732;BME280;5417;42.686;23.244;2022-11-20T00:33:54;93517.06;;;18.42;58.50
10732;BME280;5417;42.686;23.244;2022-11-20T00:36:22;93503.84;;;18.36;58.21
10732;BME280;5417;42.686;23.244;2022-11-20T00:38:51;93530.66;;;18.46;57.71
10732;BME280;5417;42.686;23.244;2022-11-20T00:41:21;93526.22;;;18.53;57.91
10732;BME280;5417;42.686;23.244;2022-11-20T00:43:56;93532.09;;;18.48;58.36
10732;BME280;5417;42.686;23.244;2022-11-20T00:46:29;93521.50;;;18.42;58.55
10732;BME280;5417;42.686;23.244;2022-11-20T00:48:58;93525.34;;;18.39;58.61
10732;BME280;5417;42.686;23.244;2022-11-20T00:51:28;93524.16;;;18.42;59.02
10732;BME280;5417;42.686;23.244;2022-11-20T00:53:56;93538.75;;;18.44;58.96
10732;BME280;5417;42.686;23.244;2022-11-20T00:56:29;93536.94;;;18.45;58.94
10732;BME280;5417;42.686;23.244;2022-11-20T00:59:00;93527.44;;;18.50;58.94
10732;BME280;5417;42.686;23.244;2022-11-20T01:01:40;93533.47;;;18.44;58.76
10732;BME280;5417;42.686;23.244;2022-11-20T01:04:07;93528.38;;;18.36;58.97
10732;BME280;5417;42.686;23.244;2022-11-20T01:06:36;93548.88;;;18.41;59.23
10732;BME280;5417;42.686;23.244;2022-11-20T01:09:16;93502.81;;;18.30;59.34
10732;BME280;5417;42.686;23.244;2022-11-20T01:11:46;93479.88;;;18.24;59.55
10732;BME280;5417;42.686;23.244;2022-11-20T01:14:22;93501.78;;;18.31;59.55
10732;BME280;5417;42.686;23.244;2022-11-20T01:16:51;93490.22;;;18.25;60.30
10732;BME280;5417;42.686;23.244;2022-11-20T01:19:22;93474.72;;;18.16;59.69
10732;BME280;5417;42.686;23.244;2022-11-20T01:21:54;93491.41;;;18.23;60.21
10732;BME280;5417;42.686;23.244;2022-11-20T01:24:21;93493.78;;;18.18;60.30
10732;BME280;5417;42.686;23.244;2022-11-20T01:26:56;93496.41;;;18.18;60.44
10732;BME280;5417;42.686;23.244;2022-11-20T01:29:25;93481.69;;;18.23;58.29
10732;BME280;5417;42.686;23.244;2022-11-20T01:31:54;93479.09;;;18.30;58.34
10732;BME280;5417;42.686;23.244;2022-11-20T01:34:21;93477.50;;;18.36;57.96
10732;BME280;5417;42.686;23.244;2022-11-20T01:36:51;93469.78;;;18.34;57.59
10732;BME280;5417;42.686;23.244;2022-11-20T01:39:22;93472.47;;;18.41;57.73
10732;BME280;5417;42.686;23.244;2022-11-20T01:41:55;93477.47;;;18.29;57.99
10732;BME280;5417;42.686;23.244;2022-11-20T01:44:51;93464.50;;;18.34;57.82
10732;BME280;5417;42.686;23.244;2022-11-20T01:47:23;93480.53;;;18.33;58.31
10732;BME280;5417;42.686;23.244;2022-11-20T01:49:54;93479.31;;;18.35;58.03
10732;BME280;5417;42.686;23.244;2022-11-20T01:52:30;93494.34;;;18.41;58.03
10732;BME280;5417;42.686;23.244;2022-11-20T01:55:04;93478.31;;;18.36;57.62
10732;BME280;5417;42.686;23.244;2022-11-20T01:57:35;93486.59;;;18.33;57.99
10732;BME280;5417;42.686;23.244;2022-11-20T02:00:07;93500.44;;;18.42;58.02
10732;BME280;5417;42.686;23.244;2022-11-20T02:02:40;93485.97;;;18.31;58.09
10732;BME280;5417;42.686;23.244;2022-11-20T02:05:18;93489.66;;;18.37;58.18
10732;BME280;5417;42.686;23.244;2022-11-20T02:07:48;93483.16;;;18.33;57.91
10732;BME280;5417;42.686;23.244;2022-11-20T02:10:19;93489.44;;;18.32;58.42
10732;BME280;5417;42.686;23.244;2022-11-20T02:12:47;93498.16;;;18.32;58.31
10732;BME280;5417;42.686;23.244;2022-11-20T02:15:36;93491.03;;;18.26;58.50
10732;BME280;5417;42.686;23.244;2022-11-20T02:18:06;93506.44;;;18.29;58.27
10732;BME280;5417;42.686;23.244;2022-11-20T02:20:33;93491.88;;;18.33;58.06
10732;BME280;5417;42.686;23.244;2022-11-20T02:23:05;93497.09;;;18.26;58.36
10732;BME280;5417;42.686;23.244;2022-11-20T02:25:38;93512.09;;;18.26;58.57
10732;BME280;5417;42.686;23.244;2022-11-20T02:28:06;93512.91;;;18.26;58.24
10732;BME280;5417;42.686;23.244;2022-11-20T02:30:33;93503.81;;;18.29;58.47
10732;BME280;5417;42.686;23.244;2022-11-20T02:33:00;93502.38;;;18.26;58.98
10732;BME280;5417;42.686;23.244;2022-11-20T02:35:45;93504.22;;;18.33;59.04
10732;BME280;5417;42.686;23.244;2022-11-20T02:38:15;93515.34;;;18.28;58.80
10732;BME280;5417;42.686;23.244;2022-11-20T02:40:44;93513.72;;;18.27;59.35
10732;BME280;5417;42.686;23.244;2022-11-20T02:43:11;93502.94;;;18.22;58.88
10732;BME280;5417;42.686;23.244;2022-11-20T02:45:40;93509.25;;;18.27;59.15
10732;BME280;5417;42.686;23.244;2022-11-20T02:48:07;93489.91;;;18.14;59.70
10732;BME280;5417;42.686;23.244;2022-11-20T02:50:37;93514.84;;;18.18;59.81
10732;BME280;5417;42.686;23.244;2022-11-20T02:53:08;93521.31;;;18.15;59.88
10732;BME280;5417;42.686;23.244;2022-11-20T02:55:36;93518.50;;;18.17;60.09
10732;BME280;5417;42.686;23.244;2022-11-20T02:58:11;93525.38;;;18.18;60.57
10732;BME280;5417;42.686;23.244;2022-11-20T03:00:42;93520.28;;;18.10;60.39
10732;BME280;5417;42.686;23.244;2022-11-20T03:03:11;93521.56;;;18.20;60.44
10732;BME280;5417;42.686;23.244;2022-11-20T03:05:44;93518.22;;;18.05;60.95
10732;BME280;5417;42.686;23.244;2022-11-20T03:08:25;93538.31;;;18.13;61.09
10732;BME280;5417;42.686;23.244;2022-11-20T03:10:56;93530.19;;;18.08;60.96
10732;BME280;5417;42.686;23.244;2022-11-20T03:13:26;93530.84;;;18.16;60.89
10732;BME280;5417;42.686;23.244;2022-11-20T03:15:53;93537.13;;;18.15;61.14
10732;BME280;5417;42.686;23.244;2022-11-20T03:18:20;93524.72;;;18.09;61.27
10732;BME280;5417;42.686;23.244;2022-11-20T03:20:57;93521.28;;;18.09;61.23
10732;BME280;5417;42.686;23.244;2022-11-20T03:23:24;93518.44;;;18.10;61.02
10732;BME280;5417;42.686;23.244;2022-11-20T03:25:55;93516.59;;;18.04;61.18
10732;BME280;5417;42.686;23.244;2022-11-20T03:28:26;93530.22;;;18.14;61.29
10732;BME280;5417;42.686;23.244;2022-11-20T03:30:56;93519.06;;;18.12;61.59
10732;BME280;5417;42.686;23.244;2022-11-20T03:33:34;93539.84;;;18.01;61.70
10732;BME280;5417;42.686;23.244;2022-11-20T03:36:03;93523.81;;;17.95;61.82
10732;BME280;5417;42.686;23.244;2022-11-20T03:38:36;93520.38;;;17.95;61.84
10732;BME280;5417;42.686;23.244;2022-11-20T03:41:13;93536.16;;;17.95;61.76
10732;BME280;5417;42.686;23.244;2022-11-20T03:43:42;93538.94;;;17.87;61.54
10732;BME280;5417;42.686;23.244;2022-11-20T03:46:08;93541.38;;;17.88;61.92
10732;BME280;5417;42.686;23.244;2022-11-20T03:48:42;93533.91;;;17.92;61.56
10732;BME280;5417;42.686;23.244;2022-11-20T03:51:14;93541.81;;;17.92;61.46
10732;BME280;5417;42.686;23.244;2022-11-20T03:53:46;93544.69;;;17.97;61.38
10732;BME280;5417;42.686;23.244;2022-11-20T03:56:22;93550.09;;;17.89;61.57
10732;BME280;5417;42.686;23.244;2022-11-20T03:58:55;93556.78;;;17.91;61.45
10732;BME280;5417;42.686;23.244;2022-11-20T04:01:26;93547.84;;;17.86;61.14
10732;BME280;5417;42.686;23.244;2022-11-20T04:03:55;93555.72;;;17.86;61.22
10732;BME280;5417;42.686;23.244;2022-11-20T04:06:25;93567.50;;;17.90;61.52
10732;BME280;5417;42.686;23.244;2022-11-20T04:09:01;93574.72;;;18.03;61.22
10732;BME280;5417;42.686;23.244;2022-11-20T04:11:35;93569.25;;;18.04;61.24
10732;BME280;5417;42.686;23.244;2022-11-20T04:14:11;93542.56;;;17.86;60.82
10732;BME280;5417;42.686;23.244;2022-11-20T04:16:50;93553.44;;;18.04;60.65
10732;BME280;5417;42.686;23.244;2022-11-20T04:19:17;93550.06;;;18.10;60.59
10732;BME280;5417;42.686;23.244;2022-11-20T04:21:50;93558.91;;;18.03;60.49
10732;BME280;5417;42.686;23.244;2022-11-20T04:24:21;93533.16;;;17.98;60.37
10732;BME280;5417;42.686;23.244;2022-11-20T04:26:50;93553.94;;;18.14;59.74
10732;BME280;5417;42.686;23.244;2022-11-20T04:29:21;93544.94;;;18.02;59.57
10732;BME280;5417;42.686;23.244;2022-11-20T04:31:48;93561.16;;;18.06;59.84
10732;BME280;5417;42.686;23.244;2022-11-20T04:34:18;93569.44;;;18.03;59.91
10732;BME280;5417;42.686;23.244;2022-11-20T04:36:46;93566.94;;;17.94;60.54
10732;BME280;5417;42.686;23.244;2022-11-20T04:39:22;93554.69;;;17.80;60.76
10732;BME280;5417;42.686;23.244;2022-11-20T04:41:53;93561.63;;;17.88;61.04
10732;BME280;5417;42.686;23.244;2022-11-20T04:44:36;93553.53;;;17.89;61.28
10732;BME280;5417;42.686;23.244;2022-11-20T04:47:06;93542.28;;;17.74;61.49
10732;BME280;5417;42.686;23.244;2022-11-20T04:49:37;93530.56;;;17.77;61.21
10732;BME280;5417;42.686;23.244;2022-11-20T04:52:09;93538.63;;;17.75;61.57
10732;BME280;5417;42.686;23.244;2022-11-20T04:54:52;93529.50;;;17.71;61.59
10732;BME280;5417;42.686;23.244;2022-11-20T04:57:27;93539.19;;;17.92;61.32
10732;BME280;5417;42.686;23.244;2022-11-20T05:00:01;93528.16;;;17.82;61.30
10732;BME280;5417;42.686;23.244;2022-11-20T05:02:28;93528.34;;;17.80;61.84
10732;BME280;5417;42.686;23.244;2022-11-20T05:05:07;93515.22;;;17.65;61.87
10732;BME280;5417;42.686;23.244;2022-11-20T05:07:34;93518.63;;;17.81;61.59
10732;BME280;5417;42.686;23.244;2022-11-20T05:10:03;93512.38;;;17.82;61.52
10732;BME280;5417;42.686;23.244;2022-11-20T05:12:33;93502.56;;;17.69;62.19
10732;BME280;5417;42.686;23.244;2022-11-20T05:15:05;93512.59;;;17.65;62.66
10732;BME280;5417;42.686;23.244;2022-11-20T05:17:36;93493.09;;;17.60;62.65
10732;BME280;5417;42.686;23.244;2022-11-20T05:20:06;93508.25;;;17.58;62.97
10732;BME280;5417;42.686;23.244;2022-11-20T05:22:36;93496.50;;;17.54;63.00
10732;BME280;5417;42.686;23.244;2022-11-20T05:25:08;93523.75;;;17.67;62.96
10732;BME280;5417;42.686;23.244;2022-11-20T05:27:56;93515.31;;;17.72;63.15
10732;BME280;5417;42.686;23.244;2022-11-20T05:30:31;93515.72;;;17.69;63.22
10732;BME280;5417;42.686;23.244;2022-11-20T05:33:02;93516.03;;;17.66;63.56
10732;BME280;5417;42.686;23.244;2022-11-20T05:35:33;93527.69;;;17.72;63.50
10732;BME280;5417;42.686;23.244;2022-11-20T05:38:07;93526.94;;;17.63;63.17
10732;BME280;5417;42.686;23.244;2022-11-20T05:40:36;93529.50;;;17.71;63.45
10732;BME280;5417;42.686;23.244;2022-11-20T05:43:07;93508.31;;;17.64;63.25
10732;BME280;5417;42.686;23.244;2022-11-20T05:45:36;93515.13;;;17.74;63.41
10732;BME280;5417;42.686;23.244;2022-11-20T05:48:09;93535.44;;;17.80;63.31
10732;BME280;5417;42.686;23.244;2022-11-20T05:50:38;93521.03;;;17.61;63.22
10732;BME280;5417;42.686;23.244;2022-11-20T05:53:05;93540.84;;;17.72;63.17
10732;BME280;5417;42.686;23.244;2022-11-20T05:55:36;93524.66;;;17.75;62.92
10732;BME280;5417;42.686;23.244;2022-11-20T05:58:08;93543.72;;;17.77;62.54
10732;BME280;5417;42.686;23.244;2022-11-20T06:00:41;93539.63;;;17.74;62.70
10732;BME280;5417;42.686;23.244;2022-11-20T06:03:18;93539.28;;;17.62;62.51
10732;BME280;5417;42.686;23.244;2022-11-20T06:05:48;93571.66;;;17.78;62.43
10732;BME280;5417;42.686;23.244;2022-11-20T06:08:17;93555.81;;;17.71;62.49
10732;BME280;5417;42.686;23.244;2022-11-20T06:10:47;93576.13;;;17.77;62.73
10732;BME280;5417;42.686;23.244;2022-11-20T06:13:18;93558.50;;;17.78;62.45
10732;BME280;5417;42.686;23.244;2022-11-20T06:15:49;93578.03;;;17.90;62.48
10732;BME280;5417;42.686;23.244;2022-11-20T06:18:19;93579.69;;;17.91;62.58
10732;BME280;5417;42.686;23.244;2022-11-20T06:20:49;93585.19;;;17.96;62.59
10732;BME280;5417;42.686;23.244;2022-11-20T06:23:19;93578.53;;;18.00;62.57
10732;BME280;5417;42.686;23.244;2022-11-20T06:25:52;93584.72;;;18.14;62.12
10732;BME280;5417;42.686;23.244;2022-11-20T06:28:28;93575.75;;;18.08;61.19
10732;BME280;5417;42.686;23.244;2022-11-20T06:31:07;93579.59;;;18.06;61.60
10732;BME280;5417;42.686;23.244;2022-11-20T06:33:48;93585.59;;;18.49;61.44
10732;BME280;5417;42.686;23.244;2022-11-20T06:36:28;93585.13;;;19.01;60.54
10732;BME280;5417;42.686;23.244;2022-11-20T06:39:22;93578.19;;;19.35;58.51
10732;BME280;5417;42.686;23.244;2022-11-20T06:41:55;93586.28;;;19.94;57.62
10732;BME280;5417;42.686;23.244;2022-11-20T06:45:04;93577.78;;;20.52;54.69
10732;BME280;5417;42.686;23.244;2022-11-20T06:47:39;93574.84;;;20.99;54.69
10732;BME280;5417;42.686;23.244;2022-11-20T06:50:22;93563.47;;;21.50;52.92
10732;BME280;5417;42.686;23.244;2022-11-20T06:52:49;93578.72;;;21.93;50.43
10732;BME280;5417;42.686;23.244;2022-11-20T06:56:01;93566.19;;;22.13;49.58
10732;BME280;5417;42.686;23.244;2022-11-20T06:58:31;93572.22;;;22.20;48.43
10732;BME280;5417;42.686;23.244;2022-11-20T07:00:59;93586.31;;;22.21;48.85
10732;BME280;5417;42.686;23.244;2022-11-20T07:03:37;93588.94;;;22.21;49.04
10732;BME280;5417;42.686;23.244;2022-11-20T07:06:08;93583.09;;;22.12;48.59
10732;BME280;5417;42.686;23.244;2022-11-20T07:09:04;93577.69;;;21.94;49.34
10732;BME280;5417;42.686;23.244;2022-11-20T07:11:32;93577.03;;;21.67;50.27
10732;BME280;5417;42.686;23.244;2022-11-20T07:14:01;93572.91;;;21.39;50.80
10732;BME280;5417;42.686;23.244;2022-11-20T07:16:32;93588.88;;;21.06;51.85
10732;BME280;5417;42.686;23.244;2022-11-20T07:19:03;93578.75;;;20.84;52.77
10732;BME280;5417;42.686;23.244;2022-11-20T07:21:35;93582.22;;;20.64;53.18
10732;BME280;5417;42.686;23.244;2022-11-20T07:24:08;93575.13;;;20.38;53.93
10732;BME280;5417;42.686;23.244;2022-11-20T07:26:40;93579.38;;;20.06;54.89
10732;BME280;5417;42.686;23.244;2022-11-20T07:29:13;93591.09;;;19.71;56.25
10732;BME280;5417;42.686;23.244;2022-11-20T07:31:42;93597.03;;;19.79;64.01
10732;BME280;5417;42.686;23.244;2022-11-20T07:34:13;93584.44;;;19.81;62.41
10732;BME280;5417;42.686;23.244;2022-11-20T07:36:42;93572.22;;;19.74;61.19
10732;BME280;5417;42.686;23.244;2022-11-20T07:39:09;93594.19;;;19.88;61.00
10732;BME280;5417;42.686;23.244;2022-11-20T07:41:36;93587.47;;;19.85;59.38
10732;BME280;5417;42.686;23.244;2022-11-20T07:44:06;93590.13;;;19.92;58.47
10732;BME280;5417;42.686;23.244;2022-11-20T07:46:32;93586.47;;;19.86;59.43
10732;BME280;5417;42.686;23.244;2022-11-20T07:48:59;93597.84;;;19.87;58.92
10732;BME280;5417;42.686;23.244;2022-11-20T07:51:31;93582.00;;;19.80;58.86
10732;BME280;5417;42.686;23.244;2022-11-20T07:54:04;93603.69;;;19.75;56.82
10732;BME280;5417;42.686;23.244;2022-11-20T07:56:33;93613.19;;;19.57;56.84
10732;BME280;5417;42.686;23.244;2022-11-20T07:59:09;93609.53;;;19.16;57.16
10732;BME280;5417;42.686;23.244;2022-11-20T08:01:37;93625.84;;;19.27;57.18
10732;BME280;5417;42.686;23.244;2022-11-20T08:04:04;93634.59;;;19.27;57.09
10732;BME280;5417;42.686;23.244;2022-11-20T08:06:32;93631.84;;;19.14;57.34
10732;BME280;5417;42.686;23.244;2022-11-20T08:09:03;93619.25;;;19.09;58.10
10732;BME280;5417;42.686;23.244;2022-11-20T08:11:30;93610.91;;;19.06;58.27
10732;BME280;5417;42.686;23.244;2022-11-20T08:14:15;93624.97;;;19.19;58.13
10732;BME280;5417;42.686;23.244;2022-11-20T08:16:45;93634.91;;;19.17;58.59
10732;BME280;5417;42.686;23.244;2022-11-20T08:19:13;93629.94;;;19.29;59.00
10732;BME280;5417;42.686;23.244;2022-11-20T08:21:42;93615.13;;;19.35;60.35
10732;BME280;5417;42.686;23.244;2022-11-20T08:24:09;93630.38;;;19.46;60.31
10732;BME280;5417;42.686;23.244;2022-11-20T08:26:38;93639.94;;;19.47;61.30
10732;BME280;5417;42.686;23.244;2022-11-20T08:29:05;93644.25;;;19.54;61.92
10732;BME280;5417;42.686;23.244;2022-11-20T08:31:32;93643.19;;;19.49;61.00
10732;BME280;5417;42.686;23.244;2022-11-20T08:34:01;93632.63;;;19.42;61.55
10732;BME280;5417;42.686;23.244;2022-11-20T08:36:29;93637.97;;;19.56;61.23
10732;BME280;5417;42.686;23.244;2022-11-20T08:39:03;93641.75;;;19.46;61.61
10732;BME280;5417;42.686;23.244;2022-11-20T08:41:30;93663.50;;;19.48;61.83
10732;BME280;5417;42.686;23.244;2022-11-20T08:43:59;93672.19;;;19.42;62.77
10732;BME280;5417;42.686;23.244;2022-11-20T08:46:32;93677.97;;;19.24;63.58
10732;BME280;5417;42.686;23.244;2022-11-20T08:49:00;93675.03;;;19.06;64.85
10732;BME280;5417;42.686;23.244;2022-11-20T08:51:29;93682.91;;;19.00;65.96
10732;BME280;5417;42.686;23.244;2022-11-20T08:53:57;93657.28;;;18.87;67.68
10732;BME280;5417;42.686;23.244;2022-11-20T08:56:27;93668.63;;;18.87;67.91
10732;BME280;5417;42.686;23.244;2022-11-20T08:58:54;93657.13;;;18.95;68.15
10732;BME280;5417;42.686;23.244;2022-11-20T09:01:22;93669.22;;;18.83;67.85
10732;BME280;5417;42.686;23.244;2022-11-20T09:03:51;93669.47;;;18.67;67.76
10732;BME280;5417;42.686;23.244;2022-11-20T09:06:20;93678.22;;;18.67;68.65
10732;BME280;5417;42.686;23.244;2022-11-20T09:08:47;93673.31;;;18.64;69.00
10732;BME280;5417;42.686;23.244;2022-11-20T09:11:24;93688.88;;;18.59;69.54
10732;BME280;5417;42.686;23.244;2022-11-20T09:13:53;93685.78;;;18.55;69.81
10732;BME280;5417;42.686;23.244;2022-11-20T09:16:26;93678.97;;;18.40;69.67
10732;BME280;5417;42.686;23.244;2022-11-20T09:18:55;93699.09;;;18.47;70.94
10732;BME280;5417;42.686;23.244;2022-11-20T09:21:22;93689.38;;;18.48;70.92
10732;BME280;5417;42.686;23.244;2022-11-20T09:23:50;93681.88;;;18.45;70.77
10732;BME280;5417;42.686;23.244;2022-11-20T09:26:24;93677.03;;;18.48;70.47
10732;BME280;5417;42.686;23.244;2022-11-20T09:28:52;93674.72;;;18.39;69.41
10732;BME280;5417;42.686;23.244;2022-11-20T09:31:23;93663.53;;;18.15;69.40
10732;BME280;5417;42.686;23.244;2022-11-20T09:33:51;93661.66;;;18.09;70.27
10732;BME280;5417;42.686;23.244;2022-11-20T09:36:20;93642.69;;;17.92;71.30
10732;BME280;5417;42.686;23.244;2022-11-20T09:38:54;93624.75;;;17.81;71.59
10732;BME280;5417;42.686;23.244;2022-11-20T09:41:43;93628.81;;;17.84;72.13
10732;BME280;5417;42.686;23.244;2022-11-20T09:44:34;93614.66;;;17.85;72.83
10732;BME280;5417;42.686;23.244;2022-11-20T09:47:11;93619.53;;;17.88;73.46
10732;BME280;5417;42.686;23.244;2022-11-20T09:49:54;93618.59;;;17.95;73.21
10732;BME280;5417;42.686;23.244;2022-11-20T09:52:32;93602.22;;;18.00;72.58
10732;BME280;5417;42.686;23.244;2022-11-20T09:55:08;93590.75;;;18.08;72.66
10732;BME280;5417;42.686;23.244;2022-11-20T09:57:38;93596.69;;;18.16;71.80
10732;BME280;5417;42.686;23.244;2022-11-20T10:00:12;93584.66;;;18.28;71.78
10732;BME280;5417;42.686;23.244;2022-11-20T10:02:43;93584.91;;;18.34;71.18
10732;BME280;5417;42.686;23.244;2022-11-20T10:05:18;93590.34;;;18.60;70.31
10732;BME280;5417;42.686;23.244;2022-11-20T10:07:51;93585.03;;;18.81;69.83
10732;BME280;5417;42.686;23.244;2022-11-20T10:10:29;93580.66;;;18.95;68.85
10732;BME280;5417;42.686;23.244;2022-11-20T10:13:10;93591.88;;;19.10;68.36
10732;BME280;5417;42.686;23.244;2022-11-20T10:15:46;93595.75;;;19.14;67.58
10732;BME280;5417;42.686;23.244;2022-11-20T10:18:37;93603.94;;;19.26;67.11
10732;BME280;5417;42.686;23.244;2022-11-20T10:21:16;93623.84;;;19.35;66.50
10732;BME280;5417;42.686;23.244;2022-11-20T10:24:00;93626.88;;;19.26;65.04
10732;BME280;5417;42.686;23.244;2022-11-20T10:26:40;93626.56;;;19.07;64.84
10732;BME280;5417;42.686;23.244;2022-11-20T10:29:12;93629.31;;;18.92;66.24
10732;BME280;5417;42.686;23.244;2022-11-20T10:31:44;93611.47;;;18.95;66.98
10732;BME280;5417;42.686;23.244;2022-11-20T10:34:26;93636.44;;;18.99;67.92
10732;BME280;5417;42.686;23.244;2022-11-20T10:36:59;93626.81;;;18.78;69.91
10732;BME280;5417;42.686;23.244;2022-11-20T10:39:35;93627.38;;;18.73;70.01
10732;BME280;5417;42.686;23.244;2022-11-20T10:42:08;93629.19;;;18.51;69.76
10732;BME280;5417;42.686;23.244;2022-11-20T10:44:53;93617.03;;;18.22;70.84
10732;BME280;5417;42.686;23.244;2022-11-20T10:47:31;93604.34;;;18.11;71.82
10732;BME280;5417;42.686;23.244;2022-11-20T10:50:02;93615.25;;;18.08;72.02
10732;BME280;5417;42.686;23.244;2022-11-20T10:52:37;93642.41;;;18.09;74.35
10732;BME280;5417;42.686;23.244;2022-11-20T10:55:25;93658.41;;;18.07;73.51
10732;BME280;5417;42.686;23.244;2022-11-20T10:57:59;93646.00;;;18.01;73.01
10732;BME280;5417;42.686;23.244;2022-11-20T11:00:30;93668.81;;;18.15;71.69
10732;BME280;5417;42.686;23.244;2022-11-20T11:02:59;93698.88;;;18.21;69.68
10732;BME280;5417;42.686;23.244;2022-11-20T11:05:36;93701.22;;;18.16;68.31
10732;BME280;5417;42.686;23.244;2022-11-20T11:08:04;93675.09;;;17.93;66.82
10732;BME280;5417;42.686;23.244;2022-11-20T11:10:42;93664.03;;;17.83;65.79
10732;BME280;5417;42.686;23.244;2022-11-20T11:13:21;93655.69;;;17.28;64.35
10732;BME280;5417;42.686;23.244;2022-11-20T11:15:50;93656.78;;;16.75;64.98
10732;BME280;5417;42.686;23.244;2022-11-20T11:18:26;93643.94;;;16.57;66.88
10732;BME280;5417;42.686;23.244;2022-11-20T11:20:54;93637.59;;;16.52;67.68
10732;BME280;5417;42.686;23.244;2022-11-20T11:23:32;93659.59;;;16.36;68.28
10732;BME280;5417;42.686;23.244;2022-11-20T11:26:02;93632.66;;;16.19;68.56
10732;BME280;5417;42.686;23.244;2022-11-20T11:28:29;93620.09;;;16.06;68.32
10732;BME280;5417;42.686;23.244;2022-11-20T11:30:57;93618.44;;;15.91;69.13
10732;BME280;5417;42.686;23.244;2022-11-20T11:33:26;93621.53;;;15.71;70.23
10732;BME280;5417;42.686;23.244;2022-11-20T11:35:56;93630.75;;;15.67;70.27
10732;BME280;5417;42.686;23.244;2022-11-20T11:38:34;93617.50;;;15.53;70.98
10732;BME280;5417;42.686;23.244;2022-11-20T11:41:03;93649.81;;;15.61;70.62
10732;BME280;5417;42.686;23.244;2022-11-20T11:43:33;93657.69;;;15.61;71.26
10732;BME280;5417;42.686;23.244;2022-11-20T11:46:33;93651.22;;;15.72;72.43
10732;BME280;5417;42.686;23.244;2022-11-20T11:49:15;93635.75;;;15.77;72.32
10732;BME280;5417;42.686;23.244;2022-11-20T11:51:52;93635.53;;;15.87;71.26
10732;BME280;5417;42.686;23.244;2022-11-20T11:54:30;93631.50;;;15.99;70.30
10732;BME280;5417;42.686;23.244;2022-11-20T11:57:05;93644.63;;;15.99;70.48
10732;BME280;5417;42.686;23.244;2022-11-20T11:59:52;93648.50;;;16.03;70.67
10732;BME280;5417;42.686;23.244;2022-11-20T12:02:31;93645.53;;;16.06;70.73
10732;BME280;5417;42.686;23.244;2022-11-20T12:05:08;93635.00;;;16.14;70.70
10732;BME280;5417;42.686;23.244;2022-11-20T12:07:41;93625.34;;;16.29;70.74
10732;BME280;5417;42.686;23.244;2022-11-20T12:10:17;93632.75;;;16.26;66.61
10732;BME280;5417;42.686;23.244;2022-11-20T12:12:49;93616.19;;;16.02;67.35
10732;BME280;5417;42.686;23.244;2022-11-20T12:15:30;93615.13;;;16.12;68.09
10732;BME280;5417;42.686;23.244;2022-11-20T12:17:58;93623.19;;;16.10;67.88
10732;BME280;5417;42.686;23.244;2022-11-20T12:20:29;93624.78;;;15.96;68.33
10732;BME280;5417;42.686;23.244;2022-11-20T12:23:07;93626.13;;;15.92;68.79
10732;BME280;5417;42.686;23.244;2022-11-20T12:25:42;93631.72;;;15.89;66.84
10732;BME280;5417;42.686;23.244;2022-11-20T12:28:36;93630.16;;;15.80;67.72
10732;BME280;5417;42.686;23.244;2022-11-20T12:31:51;93620.94;;;15.84;66.67
10732;BME280;5417;42.686;23.244;2022-11-20T12:37:20;93589.22;;;15.71;68.67
10732;BME280;5417;42.686;23.244;2022-11-20T12:39:50;93570.88;;;15.71;67.89
10732;BME280;5417;42.686;23.244;2022-11-20T12:42:31;93563.88;;;15.63;67.82
10732;BME280;5417;42.686;23.244;2022-11-20T12:45:32;93572.97;;;15.75;68.61
10732;BME280;5417;42.686;23.244;2022-11-20T12:48:17;93561.13;;;15.80;68.26
10732;BME280;5417;42.686;23.244;2022-11-20T12:51:04;93555.53;;;15.97;64.58
10732;BME280;5417;42.686;23.244;2022-11-20T12:53:44;93550.38;;;15.89;63.25
10732;BME280;5417;42.686;23.244;2022-11-20T12:56:26;93549.66;;;15.95;64.53
10732;BME280;5417;42.686;23.244;2022-11-20T12:59:10;93552.47;;;15.94;64.43
10732;BME280;5417;42.686;23.244;2022-11-20T13:01:48;93561.16;;;15.94;66.13
10732;BME280;5417;42.686;23.244;2022-11-20T13:07:14;93533.47;;;16.06;69.02
10732;BME280;5417;42.686;23.244;2022-11-20T13:09:45;93535.88;;;16.16;70.19
10732;BME280;5417;42.686;23.244;2022-11-20T13:12:17;93538.50;;;16.16;70.96
10732;BME280;5417;42.686;23.244;2022-11-20T13:14:52;93559.50;;;16.31;71.50
10732;BME280;5417;42.686;23.244;2022-11-20T13:17:27;93570.47;;;16.20;70.84
10732;BME280;5417;42.686;23.244;2022-11-20T13:19:58;93587.44;;;16.09;71.69
10732;BME280;5417;42.686;23.244;2022-11-20T13:22:26;93583.06;;;16.01;72.44
10732;BME280;5417;42.686;23.244;2022-11-20T13:24:54;93577.81;;;16.01;72.21
10732;BME280;5417;42.686;23.244;2022-11-20T13:27:22;93584.94;;;15.93;71.43
10732;BME280;5417;42.686;23.244;2022-11-20T13:30:10;93578.06;;;15.92;71.74
10732;BME280;5417;42.686;23.244;2022-11-20T13:32:48;93574.78;;;15.21;73.88
10732;BME280;5417;42.686;23.244;2022-11-20T13:35:25;93595.00;;;15.04;75.91
10732;BME280;5417;42.686;23.244;2022-11-20T13:38:04;93579.59;;;14.70;77.40